sensor_id;sensor_type;location;lat;lon;timestamp;P1;durP1;ratioP1;P2;durP2;ratioP2
49460;SDS011;35355;49.198;-0.368;2022-10-16T00:00:52;7.07;;;0.77;;
49460;SDS011;35355;49.198;-0.368;2022-10-16T00:03:18;5.97;;;1.00;;
49460;SDS011;35355;49.198;-0.368;2022-10-16T00:05:43;4.53;;;0.60;;
49460;SDS011;35355;49.198;-0.368;2022-10-16T00:08:12;4.43;;;0.60;;
49460;SDS011;35355;49.198;-0.368;2022-10-16T00:10:38;3.55;;;1.00;;
49460;SDS011;35355;49.198;-0.368;2022-10-16T00:13:04;5.30;;;0.43;;
49460;SDS011;35355;49.198;-0.368;2022-10-16T00:15:32;1.42;;;0.60;;
49460;SDS011;35355;49.198;-0.368;2022-10-16T00:18:01;3.90;;;0.55;;
49460;SDS011;35355;49.198;-0.368;2022-10-16T00:20:26;6.25;;;0.68;;
49460;SDS011;35355;49.198;-0.368;2022-10-16T00:22:52;4.55;;;0.73;;
49460;SDS011;35355;49.198;-0.368;2022-10-16T00:25:17;2.70;;;1.05;;
49460;SDS011;35355;49.198;-0.368;2022-10-16T00:27:43;2.88;;;0.32;;
49460;SDS011;35355;49.198;-0.368;2022-10-16T00:30:08;4.20;;;0.47;;
49460;SDS011;35355;49.198;-0.368;2022-10-16T00:32:34;2.38;;;0.55;;
49460;SDS011;35355;49.198;-0.368;2022-10-16T00:34:59;2.28;;;0.52;;
49460;SDS011;35355;49.198;-0.368;2022-10-16T00:37:24;2.95;;;0.50;;
49460;SDS011;35355;49.198;-0.368;2022-10-16T00:39:50;6.03;;;0.50;;
49460;SDS011;35355;49.198;-0.368;2022-10-16T00:42:16;4.57;;;0.50;;
49460;SDS011;35355;49.198;-0.368;2022-10-16T00:44:52;3.20;;;1.10;;
49460;SDS011;35355;49.198;-0.368;2022-10-16T00:47:34;6.93;;;0.70;;
49460;SDS011;35355;49.198;-0.368;2022-10-16T00:50:01;4.28;;;0.77;;
49460;SDS011;35355;49.198;-0.368;2022-10-16T00:52:30;5.85;;;0.60;;
49460;SDS011;35355;49.198;-0.368;2022-10-16T00:54:56;6.43;;;0.65;;
49460;SDS011;35355;49.198;-0.368;2022-10-16T00:57:22;4.32;;;0.50;;
49460;SDS011;35355;49.198;-0.368;2022-10-16T00:59:49;3.03;;;0.73;;
49460;SDS011;35355;49.198;-0.368;2022-10-16T01:02:16;4.15;;;0.65;;
49460;SDS011;35355;49.198;-0.368;2022-10-16T01:04:50;2.90;;;1.00;;
49460;SDS011;35355;49.198;-0.368;2022-10-16T01:13:06;7.35;;;0.60;;
49460;SDS011;35355;49.198;-0.368;2022-10-16T01:15:39;9.30;;;1.02;;
49460;SDS011;35355;49.198;-0.368;2022-10-16T01:18:21;5.57;;;0.40;;
49460;SDS011;35355;49.198;-0.368;2022-10-16T01:20:54;9.60;;;0.70;;
49460;SDS011;35355;49.198;-0.368;2022-10-16T01:23:32;5.25;;;0.85;;
49460;SDS011;35355;49.198;-0.368;2022-10-16T01:26:24;4.50;;;0.47;;
49460;SDS011;35355;49.198;-0.368;2022-10-16T01:29:00;3.53;;;0.50;;
49460;SDS011;35355;49.198;-0.368;2022-10-16T01:31:33;8.45;;;0.68;;
49460;SDS011;35355;49.198;-0.368;2022-10-16T01:37:07;3.25;;;0.30;;
49460;SDS011;35355;49.198;-0.368;2022-10-16T01:39:37;4.75;;;0.55;;
49460;SDS011;35355;49.198;-0.368;2022-10-16T01:42:06;2.97;;;0.50;;
49460;SDS011;35355;49.198;-0.368;2022-10-16T01:44:38;4.30;;;0.50;;
49460;SDS011;35355;49.198;-0.368;2022-10-16T01:47:06;4.82;;;0.85;;
49460;SDS011;35355;49.198;-0.368;2022-10-16T01:49:34;4.53;;;0.40;;
49460;SDS011;35355;49.198;-0.368;2022-10-16T01:52:05;2.95;;;0.40;;
49460;SDS011;35355;49.198;-0.368;2022-10-16T01:54:34;2.67;;;0.38;;
49460;SDS011;35355;49.198;-0.368;2022-10-16T01:57:02;7.63;;;0.60;;
49460;SDS011;35355;49.198;-0.368;2022-10-16T01:59:31;6.18;;;1.38;;
49460;SDS011;35355;49.198;-0.368;2022-10-16T02:02:03;4.72;;;0.77;;
49460;SDS011;35355;49.198;-0.368;2022-10-16T02:04:34;7.85;;;0.43;;
49460;SDS011;35355;49.198;-0.368;2022-10-16T02:07:03;2.88;;;0.30;;
49460;SDS011;35355;49.198;-0.368;2022-10-16T02:09:29;3.25;;;1.50;;
49460;SDS011;35355;49.198;-0.368;2022-10-16T02:11:58;6.25;;;0.60;;
49460;SDS011;35355;49.198;-0.368;2022-10-16T02:14:27;2.80;;;0.55;;
49460;SDS011;35355;49.198;-0.368;2022-10-16T02:16:53;4.07;;;0.57;;
49460;SDS011;35355;49.198;-0.368;2022-10-16T02:19:19;4.40;;;0.55;;
49460;SDS011;35355;49.198;-0.368;2022-10-16T02:21:50;3.13;;;0.40;;
49460;SDS011;35355;49.198;-0.368;2022-10-16T02:29:43;3.95;;;0.50;;
49460;SDS011;35355;49.198;-0.368;2022-10-16T02:32:15;6.25;;;0.50;;
49460;SDS011;35355;49.198;-0.368;2022-10-16T02:34:44;6.72;;;0.60;;
49460;SDS011;35355;49.198;-0.368;2022-10-16T02:37:11;1.60;;;0.50;;
49460;SDS011;35355;49.198;-0.368;2022-10-16T02:39:38;3.00;;;0.50;;
49460;SDS011;35355;49.198;-0.368;2022-10-16T02:42:09;4.32;;;0.35;;
49460;SDS011;35355;49.198;-0.368;2022-10-16T02:44:36;5.90;;;0.68;;
49460;SDS011;35355;49.198;-0.368;2022-10-16T02:47:01;6.90;;;0.68;;
49460;SDS011;35355;49.198;-0.368;2022-10-16T02:49:27;3.10;;;0.43;;
49460;SDS011;35355;49.198;-0.368;2022-10-16T02:51:52;3.15;;;0.50;;
49460;SDS011;35355;49.198;-0.368;2022-10-16T02:54:18;3.45;;;0.40;;
49460;SDS011;35355;49.198;-0.368;2022-10-16T02:56:43;4.30;;;0.52;;
49460;SDS011;35355;49.198;-0.368;2022-10-16T02:59:08;4.78;;;0.55;;
49460;SDS011;35355;49.198;-0.368;2022-10-16T03:01:34;2.65;;;0.50;;
49460;SDS011;35355;49.198;-0.368;2022-10-16T03:03:59;2.83;;;0.30;;
49460;SDS011;35355;49.198;-0.368;2022-10-16T03:06:24;2.10;;;0.30;;
49460;SDS011;35355;49.198;-0.368;2022-10-16T03:08:50;0.88;;;0.30;;
49460;SDS011;35355;49.198;-0.368;2022-10-16T03:11:15;8.00;;;0.40;;
49460;SDS011;35355;49.198;-0.368;2022-10-16T03:13:40;2.00;;;0.43;;
49460;SDS011;35355;49.198;-0.368;2022-10-16T03:16:06;5.05;;;0.50;;
49460;SDS011;35355;49.198;-0.368;2022-10-16T03:18:31;2.75;;;0.25;;
49460;SDS011;35355;49.198;-0.368;2022-10-16T03:20:56;5.53;;;0.60;;
49460;SDS011;35355;49.198;-0.368;2022-10-16T03:23:22;6.90;;;0.70;;
49460;SDS011;35355;49.198;-0.368;2022-10-16T03:25:47;3.67;;;0.50;;
49460;SDS011;35355;49.198;-0.368;2022-10-16T03:28:13;2.70;;;0.70;;
49460;SDS011;35355;49.198;-0.368;2022-10-16T03:30:38;4.30;;;0.30;;
49460;SDS011;35355;49.198;-0.368;2022-10-16T03:33:04;4.03;;;0.43;;
49460;SDS011;35355;49.198;-0.368;2022-10-16T03:35:31;3.25;;;0.50;;
49460;SDS011;35355;49.198;-0.368;2022-10-16T03:37:57;7.38;;;1.73;;
49460;SDS011;35355;49.198;-0.368;2022-10-16T03:40:23;8.95;;;0.50;;
49460;SDS011;35355;49.198;-0.368;2022-10-16T03:42:48;3.88;;;1.08;;
49460;SDS011;35355;49.198;-0.368;2022-10-16T03:45:13;6.03;;;0.57;;
49460;SDS011;35355;49.198;-0.368;2022-10-16T03:47:39;6.18;;;0.45;;
49460;SDS011;35355;49.198;-0.368;2022-10-16T03:50:04;4.88;;;0.40;;
49460;SDS011;35355;49.198;-0.368;2022-10-16T03:52:30;2.60;;;0.45;;
49460;SDS011;35355;49.198;-0.368;2022-10-16T03:54:57;13.82;;;0.70;;
49460;SDS011;35355;49.198;-0.368;2022-10-16T03:57:22;2.17;;;0.40;;
49460;SDS011;35355;49.198;-0.368;2022-10-16T03:59:48;3.90;;;0.65;;
49460;SDS011;35355;49.198;-0.368;2022-10-16T04:02:13;3.03;;;0.52;;
49460;SDS011;35355;49.198;-0.368;2022-10-16T04:04:38;5.43;;;0.60;;
49460;SDS011;35355;49.198;-0.368;2022-10-16T04:07:04;3.72;;;0.40;;
49460;SDS011;35355;49.198;-0.368;2022-10-16T04:09:30;2.67;;;0.40;;
49460;SDS011;35355;49.198;-0.368;2022-10-16T04:11:55;2.55;;;0.55;;
49460;SDS011;35355;49.198;-0.368;2022-10-16T04:14:20;3.33;;;0.40;;
49460;SDS011;35355;49.198;-0.368;2022-10-16T04:16:46;3.47;;;0.43;;
49460;SDS011;35355;49.198;-0.368;2022-10-16T04:19:11;5.68;;;0.93;;
49460;SDS011;35355;49.198;-0.368;2022-10-16T04:21:37;6.07;;;0.80;;
49460;SDS011;35355;49.198;-0.368;2022-10-16T04:24:02;6.80;;;0.60;;
49460;SDS011;35355;49.198;-0.368;2022-10-16T04:26:28;5.05;;;0.50;;
49460;SDS011;35355;49.198;-0.368;2022-10-16T04:28:53;5.78;;;0.70;;
49460;SDS011;35355;49.198;-0.368;2022-10-16T04:31:19;6.25;;;0.45;;
49460;SDS011;35355;49.198;-0.368;2022-10-16T04:33:45;2.25;;;0.43;;
49460;SDS011;35355;49.198;-0.368;2022-10-16T04:36:10;3.72;;;0.70;;
49460;SDS011;35355;49.198;-0.368;2022-10-16T04:38:35;7.43;;;0.60;;
49460;SDS011;35355;49.198;-0.368;2022-10-16T04:41:02;5.45;;;0.45;;
49460;SDS011;35355;49.198;-0.368;2022-10-16T04:43:28;3.03;;;0.52;;
49460;SDS011;35355;49.198;-0.368;2022-10-16T04:45:53;2.55;;;0.50;;
49460;SDS011;35355;49.198;-0.368;2022-10-16T04:48:19;5.38;;;0.30;;
49460;SDS011;35355;49.198;-0.368;2022-10-16T04:50:45;4.22;;;0.75;;
49460;SDS011;35355;49.198;-0.368;2022-10-16T04:53:10;6.95;;;0.60;;
49460;SDS011;35355;49.198;-0.368;2022-10-16T04:55:36;3.08;;;0.40;;
49460;SDS011;35355;49.198;-0.368;2022-10-16T04:58:02;2.40;;;0.30;;
49460;SDS011;35355;49.198;-0.368;2022-10-16T05:00:28;3.50;;;0.40;;
49460;SDS011;35355;49.198;-0.368;2022-10-16T05:02:53;6.20;;;0.70;;
49460;SDS011;35355;49.198;-0.368;2022-10-16T05:05:18;5.35;;;0.57;;
49460;SDS011;35355;49.198;-0.368;2022-10-16T05:07:44;5.32;;;0.57;;
49460;SDS011;35355;49.198;-0.368;2022-10-16T05:10:14;4.88;;;0.70;;
49460;SDS011;35355;49.198;-0.368;2022-10-16T05:12:39;4.05;;;0.65;;
49460;SDS011;35355;49.198;-0.368;2022-10-16T05:15:05;2.92;;;0.70;;
49460;SDS011;35355;49.198;-0.368;2022-10-16T05:17:30;9.27;;;1.27;;
49460;SDS011;35355;49.198;-0.368;2022-10-16T05:41:13;4.97;;;0.60;;
49460;SDS011;35355;49.198;-0.368;2022-10-16T05:43:38;6.30;;;1.25;;
49460;SDS011;35355;49.198;-0.368;2022-10-16T05:46:04;3.50;;;0.60;;
49460;SDS011;35355;49.198;-0.368;2022-10-16T05:48:31;3.10;;;0.70;;
49460;SDS011;35355;49.198;-0.368;2022-10-16T05:51:08;2.35;;;0.32;;
49460;SDS011;35355;49.198;-0.368;2022-10-16T05:53:36;5.00;;;0.60;;
49460;SDS011;35355;49.198;-0.368;2022-10-16T05:56:03;3.20;;;0.40;;
49460;SDS011;35355;49.198;-0.368;2022-10-16T05:58:30;4.63;;;0.40;;
49460;SDS011;35355;49.198;-0.368;2022-10-16T06:01:10;2.65;;;0.50;;
49460;SDS011;35355;49.198;-0.368;2022-10-16T06:03:37;7.55;;;0.93;;
49460;SDS011;35355;49.198;-0.368;2022-10-16T06:06:10;6.95;;;0.45;;
49460;SDS011;35355;49.198;-0.368;2022-10-16T06:08:40;6.45;;;1.17;;
49460;SDS011;35355;49.198;-0.368;2022-10-16T06:11:07;5.20;;;0.52;;
49460;SDS011;35355;49.198;-0.368;2022-10-16T06:13:35;2.35;;;0.40;;
49460;SDS011;35355;49.198;-0.368;2022-10-16T06:16:01;2.13;;;0.60;;
49460;SDS011;35355;49.198;-0.368;2022-10-16T06:18:28;6.40;;;1.33;;
49460;SDS011;35355;49.198;-0.368;2022-10-16T06:20:55;4.80;;;0.60;;
49460;SDS011;35355;49.198;-0.368;2022-10-16T06:23:21;2.90;;;0.50;;
49460;SDS011;35355;49.198;-0.368;2022-10-16T06:25:46;3.40;;;0.70;;
49460;SDS011;35355;49.198;-0.368;2022-10-16T06:28:13;6.32;;;0.70;;
49460;SDS011;35355;49.198;-0.368;2022-10-16T06:30:39;3.45;;;0.98;;
49460;SDS011;35355;49.198;-0.368;2022-10-16T06:33:04;5.03;;;0.60;;
49460;SDS011;35355;49.198;-0.368;2022-10-16T06:35:30;6.07;;;0.50;;
49460;SDS011;35355;49.198;-0.368;2022-10-16T06:37:56;5.47;;;1.40;;
49460;SDS011;35355;49.198;-0.368;2022-10-16T06:40:22;5.13;;;0.75;;
49460;SDS011;35355;49.198;-0.368;2022-10-16T06:42:47;5.15;;;0.90;;
49460;SDS011;35355;49.198;-0.368;2022-10-16T06:45:13;3.20;;;0.63;;
49460;SDS011;35355;49.198;-0.368;2022-10-16T06:47:38;3.85;;;0.50;;
49460;SDS011;35355;49.198;-0.368;2022-10-16T06:50:04;6.55;;;0.63;;
49460;SDS011;35355;49.198;-0.368;2022-10-16T06:52:31;8.38;;;0.70;;
49460;SDS011;35355;49.198;-0.368;2022-10-16T06:54:57;7.78;;;1.05;;
49460;SDS011;35355;49.198;-0.368;2022-10-16T06:57:23;8.07;;;1.00;;
49460;SDS011;35355;49.198;-0.368;2022-10-16T06:59:48;3.70;;;0.65;;
49460;SDS011;35355;49.198;-0.368;2022-10-16T07:02:13;5.55;;;0.88;;
49460;SDS011;35355;49.198;-0.368;2022-10-16T07:04:39;3.17;;;0.80;;
49460;SDS011;35355;49.198;-0.368;2022-10-16T07:07:04;6.57;;;0.93;;
49460;SDS011;35355;49.198;-0.368;2022-10-16T07:09:33;2.05;;;0.60;;
49460;SDS011;35355;49.198;-0.368;2022-10-16T07:11:58;4.15;;;0.70;;
49460;SDS011;35355;49.198;-0.368;2022-10-16T07:14:24;2.45;;;0.77;;
49460;SDS011;35355;49.198;-0.368;2022-10-16T07:16:49;11.45;;;1.13;;
49460;SDS011;35355;49.198;-0.368;2022-10-16T07:19:15;6.68;;;0.80;;
49460;SDS011;35355;49.198;-0.368;2022-10-16T07:21:42;6.53;;;0.90;;
49460;SDS011;35355;49.198;-0.368;2022-10-16T07:24:12;6.03;;;1.10;;
49460;SDS011;35355;49.198;-0.368;2022-10-16T07:26:39;8.15;;;0.85;;
49460;SDS011;35355;49.198;-0.368;2022-10-16T07:29:18;2.80;;;1.27;;
49460;SDS011;35355;49.198;-0.368;2022-10-16T07:31:45;6.60;;;1.45;;
49460;SDS011;35355;49.198;-0.368;2022-10-16T07:34:12;5.15;;;1.25;;
49460;SDS011;35355;49.198;-0.368;2022-10-16T07:36:38;4.22;;;0.82;;
49460;SDS011;35355;49.198;-0.368;2022-10-16T07:39:04;7.95;;;2.45;;
49460;SDS011;35355;49.198;-0.368;2022-10-16T07:41:29;7.75;;;2.60;;
49460;SDS011;35355;49.198;-0.368;2022-10-16T07:43:57;9.50;;;1.45;;
49460;SDS011;35355;49.198;-0.368;2022-10-16T07:46:25;9.00;;;1.30;;
49460;SDS011;35355;49.198;-0.368;2022-10-16T07:48:51;8.70;;;1.70;;
49460;SDS011;35355;49.198;-0.368;2022-10-16T07:51:18;9.32;;;1.77;;
49460;SDS011;35355;49.198;-0.368;2022-10-16T07:53:44;6.53;;;1.38;;
49460;SDS011;35355;49.198;-0.368;2022-10-16T07:56:11;7.07;;;1.52;;
49460;SDS011;35355;49.198;-0.368;2022-10-16T07:58:36;5.70;;;1.70;;
49460;SDS011;35355;49.198;-0.368;2022-10-16T08:01:06;6.88;;;1.67;;
49460;SDS011;35355;49.198;-0.368;2022-10-16T08:03:33;10.80;;;1.88;;
49460;SDS011;35355;49.198;-0.368;2022-10-16T08:05:59;6.20;;;1.52;;
49460;SDS011;35355;49.198;-0.368;2022-10-16T08:08:26;7.15;;;1.85;;
49460;SDS011;35355;49.198;-0.368;2022-10-16T08:10:51;7.90;;;2.28;;
49460;SDS011;35355;49.198;-0.368;2022-10-16T08:13:17;6.80;;;1.15;;
49460;SDS011;35355;49.198;-0.368;2022-10-16T08:15:45;6.97;;;1.77;;
49460;SDS011;35355;49.198;-0.368;2022-10-16T08:18:12;8.05;;;2.10;;
49460;SDS011;35355;49.198;-0.368;2022-10-16T08:20:38;8.57;;;1.67;;
49460;SDS011;35355;49.198;-0.368;2022-10-16T08:23:05;7.38;;;1.30;;
49460;SDS011;35355;49.198;-0.368;2022-10-16T08:25:31;6.10;;;1.10;;
49460;SDS011;35355;49.198;-0.368;2022-10-16T08:27:59;7.95;;;1.35;;
49460;SDS011;35355;49.198;-0.368;2022-10-16T08:30:25;3.85;;;0.80;;
49460;SDS011;35355;49.198;-0.368;2022-10-16T08:32:50;7.57;;;2.05;;
49460;SDS011;35355;49.198;-0.368;2022-10-16T08:35:16;4.03;;;1.10;;
49460;SDS011;35355;49.198;-0.368;2022-10-16T08:37:41;8.57;;;1.50;;
49460;SDS011;35355;49.198;-0.368;2022-10-16T08:40:13;9.43;;;1.10;;
49460;SDS011;35355;49.198;-0.368;2022-10-16T08:48:34;11.77;;;1.48;;
49460;SDS011;35355;49.198;-0.368;2022-10-16T08:51:02;4.10;;;1.00;;
49460;SDS011;35355;49.198;-0.368;2022-10-16T08:53:45;5.13;;;1.20;;
49460;SDS011;35355;49.198;-0.368;2022-10-16T08:56:14;5.18;;;1.42;;
49460;SDS011;35355;49.198;-0.368;2022-10-16T08:58:40;4.55;;;1.23;;
49460;SDS011;35355;49.198;-0.368;2022-10-16T09:01:11;3.85;;;1.40;;
49460;SDS011;35355;49.198;-0.368;2022-10-16T09:07:12;6.72;;;1.45;;
49460;SDS011;35355;49.198;-0.368;2022-10-16T09:12:15;5.53;;;1.30;;
49460;SDS011;35355;49.198;-0.368;2022-10-16T09:25:28;5.32;;;1.00;;
49460;SDS011;35355;49.198;-0.368;2022-10-16T09:27:53;5.43;;;1.70;;
49460;SDS011;35355;49.198;-0.368;2022-10-16T09:30:20;5.13;;;0.90;;
49460;SDS011;35355;49.198;-0.368;2022-10-16T09:32:47;9.45;;;1.83;;
49460;SDS011;35355;49.198;-0.368;2022-10-16T09:35:17;4.93;;;1.20;;
49460;SDS011;35355;49.198;-0.368;2022-10-16T09:37:47;11.23;;;1.73;;
49460;SDS011;35355;49.198;-0.368;2022-10-16T09:40:24;6.70;;;1.17;;
49460;SDS011;35355;49.198;-0.368;2022-10-16T09:43:02;8.98;;;0.88;;
49460;SDS011;35355;49.198;-0.368;2022-10-16T09:45:28;6.40;;;0.90;;
49460;SDS011;35355;49.198;-0.368;2022-10-16T09:47:54;4.63;;;1.25;;
49460;SDS011;35355;49.198;-0.368;2022-10-16T09:50:20;4.25;;;1.23;;
49460;SDS011;35355;49.198;-0.368;2022-10-16T09:53:02;6.32;;;1.20;;
49460;SDS011;35355;49.198;-0.368;2022-10-16T09:55:29;11.38;;;2.00;;
49460;SDS011;35355;49.198;-0.368;2022-10-16T09:57:54;5.93;;;1.02;;
49460;SDS011;35355;49.198;-0.368;2022-10-16T10:00:21;6.68;;;1.02;;
49460;SDS011;35355;49.198;-0.368;2022-10-16T10:02:48;6.13;;;1.08;;
49460;SDS011;35355;49.198;-0.368;2022-10-16T10:05:18;8.57;;;1.95;;
49460;SDS011;35355;49.198;-0.368;2022-10-16T10:07:44;5.68;;;1.38;;
49460;SDS011;35355;49.198;-0.368;2022-10-16T10:10:20;5.13;;;1.42;;
49460;SDS011;35355;49.198;-0.368;2022-10-16T10:12:48;7.65;;;0.85;;
49460;SDS011;35355;49.198;-0.368;2022-10-16T10:15:14;8.05;;;1.50;;
49460;SDS011;35355;49.198;-0.368;2022-10-16T10:22:48;7.90;;;0.95;;
49460;SDS011;35355;49.198;-0.368;2022-10-16T10:31:20;4.07;;;1.23;;
49460;SDS011;35355;49.198;-0.368;2022-10-16T10:36:48;6.70;;;1.35;;
49460;SDS011;35355;49.198;-0.368;2022-10-16T10:39:43;5.30;;;0.85;;
49460;SDS011;35355;49.198;-0.368;2022-10-16T10:45:44;4.43;;;0.95;;
49460;SDS011;35355;49.198;-0.368;2022-10-16T10:48:15;3.20;;;0.85;;
49460;SDS011;35355;49.198;-0.368;2022-10-16T10:50:43;8.32;;;1.08;;
49460;SDS011;35355;49.198;-0.368;2022-10-16T10:53:19;8.02;;;1.25;;
49460;SDS011;35355;49.198;-0.368;2022-10-16T10:56:00;7.57;;;1.38;;
49460;SDS011;35355;49.198;-0.368;2022-10-16T11:01:09;6.22;;;1.50;;
49460;SDS011;35355;49.198;-0.368;2022-10-16T11:06:43;5.93;;;1.85;;
49460;SDS011;35355;49.198;-0.368;2022-10-16T11:11:46;7.95;;;0.80;;
49460;SDS011;35355;49.198;-0.368;2022-10-16T11:17:20;7.03;;;1.35;;
49460;SDS011;35355;49.198;-0.368;2022-10-16T11:22:32;4.68;;;1.25;;
49460;SDS011;35355;49.198;-0.368;2022-10-16T11:25:15;3.28;;;1.00;;
49460;SDS011;35355;49.198;-0.368;2022-10-16T11:27:55;10.40;;;4.35;;
49460;SDS011;35355;49.198;-0.368;2022-10-16T11:30:27;6.10;;;1.88;;
49460;SDS011;35355;49.198;-0.368;2022-10-16T11:38:02;5.47;;;1.52;;
49460;SDS011;35355;49.198;-0.368;2022-10-16T11:40:37;6.13;;;1.48;;
49460;SDS011;35355;49.198;-0.368;2022-10-16T11:45:54;6.65;;;1.20;;
49460;SDS011;35355;49.198;-0.368;2022-10-16T11:48:24;2.28;;;1.08;;
49460;SDS011;35355;49.198;-0.368;2022-10-16T11:51:05;7.20;;;1.10;;
49460;SDS011;35355;49.198;-0.368;2022-10-16T11:56:16;5.95;;;1.80;;
49460;SDS011;35355;49.198;-0.368;2022-10-16T11:58:52;3.22;;;0.82;;
49460;SDS011;35355;49.198;-0.368;2022-10-16T12:01:38;4.07;;;1.17;;
49460;SDS011;35355;49.198;-0.368;2022-10-16T12:04:20;5.32;;;1.02;;
49460;SDS011;35355;49.198;-0.368;2022-10-16T12:06:55;2.83;;;0.85;;
49460;SDS011;35355;49.198;-0.368;2022-10-16T12:09:28;2.55;;;0.80;;
49460;SDS011;35355;49.198;-0.368;2022-10-16T12:11:56;6.18;;;0.93;;
49460;SDS011;35355;49.198;-0.368;2022-10-16T12:16:57;7.53;;;1.23;;
49460;SDS011;35355;49.198;-0.368;2022-10-16T12:19:26;4.20;;;1.60;;
49460;SDS011;35355;49.198;-0.368;2022-10-16T12:21:57;4.32;;;0.88;;
49460;SDS011;35355;49.198;-0.368;2022-10-16T12:24:29;5.72;;;1.10;;
49460;SDS011;35355;49.198;-0.368;2022-10-16T12:26:55;3.92;;;1.10;;
49460;SDS011;35355;49.198;-0.368;2022-10-16T12:29:35;7.78;;;1.45;;
49460;SDS011;35355;49.198;-0.368;2022-10-16T12:34:48;8.52;;;1.08;;
49460;SDS011;35355;49.198;-0.368;2022-10-16T12:37:24;3.65;;;1.08;;
49460;SDS011;35355;49.198;-0.368;2022-10-16T12:39:57;2.22;;;0.50;;
49460;SDS011;35355;49.198;-0.368;2022-10-16T12:44:53;5.40;;;0.77;;
49460;SDS011;35355;49.198;-0.368;2022-10-16T12:47:23;4.90;;;0.60;;
49460;SDS011;35355;49.198;-0.368;2022-10-16T12:50:00;4.03;;;0.98;;
49460;SDS011;35355;49.198;-0.368;2022-10-16T12:52:27;3.47;;;1.13;;
49460;SDS011;35355;49.198;-0.368;2022-10-16T12:54:59;1.38;;;0.68;;
49460;SDS011;35355;49.198;-0.368;2022-10-16T12:57:50;5.93;;;1.00;;
49460;SDS011;35355;49.198;-0.368;2022-10-16T13:03:23;3.50;;;1.02;;
49460;SDS011;35355;49.198;-0.368;2022-10-16T13:08:59;5.97;;;1.00;;
49460;SDS011;35355;49.198;-0.368;2022-10-16T13:22:24;2.80;;;0.95;;
49460;SDS011;35355;49.198;-0.368;2022-10-16T13:28:00;2.67;;;1.02;;
49460;SDS011;35355;49.198;-0.368;2022-10-16T13:30:31;4.32;;;0.95;;
49460;SDS011;35355;49.198;-0.368;2022-10-16T13:35:35;2.25;;;0.90;;
49460;SDS011;35355;49.198;-0.368;2022-10-16T13:38:17;3.70;;;1.02;;
49460;SDS011;35355;49.198;-0.368;2022-10-16T13:41:27;4.72;;;1.00;;
49460;SDS011;35355;49.198;-0.368;2022-10-16T13:43:43;5.15;;;1.35;;
49460;SDS011;35355;49.198;-0.368;2022-10-16T13:46:14;5.43;;;1.25;;
49460;SDS011;35355;49.198;-0.368;2022-10-16T13:48:40;3.65;;;1.17;;
49460;SDS011;35355;49.198;-0.368;2022-10-16T14:10:25;2.97;;;1.27;;
49460;SDS011;35355;49.198;-0.368;2022-10-16T14:12:55;2.13;;;0.88;;
49460;SDS011;35355;49.198;-0.368;2022-10-16T14:15:26;1.60;;;0.95;;
49460;SDS011;35355;49.198;-0.368;2022-10-16T14:17:52;6.30;;;0.70;;
49460;SDS011;35355;49.198;-0.368;2022-10-16T14:20:18;1.85;;;0.70;;
49460;SDS011;35355;49.198;-0.368;2022-10-16T14:22:57;1.58;;;0.90;;
49460;SDS011;35355;49.198;-0.368;2022-10-16T14:25:29;2.28;;;0.98;;
49460;SDS011;35355;49.198;-0.368;2022-10-16T14:28:00;3.42;;;1.10;;
49460;SDS011;35355;49.198;-0.368;2022-10-16T14:30:25;2.13;;;0.90;;
49460;SDS011;35355;49.198;-0.368;2022-10-16T14:32:56;3.75;;;1.02;;
49460;SDS011;35355;49.198;-0.368;2022-10-16T14:35:28;2.47;;;0.57;;
49460;SDS011;35355;49.198;-0.368;2022-10-16T14:37:56;5.47;;;1.52;;
49460;SDS011;35355;49.198;-0.368;2022-10-16T14:40:27;2.72;;;0.90;;
49460;SDS011;35355;49.198;-0.368;2022-10-16T14:42:55;4.20;;;0.80;;
49460;SDS011;35355;49.198;-0.368;2022-10-16T14:45:22;3.88;;;0.75;;
49460;SDS011;35355;49.198;-0.368;2022-10-16T14:47:55;3.92;;;0.90;;
49460;SDS011;35355;49.198;-0.368;2022-10-16T14:50:23;4.05;;;1.00;;
49460;SDS011;35355;49.198;-0.368;2022-10-16T14:52:49;2.58;;;1.08;;
49460;SDS011;35355;49.198;-0.368;2022-10-16T14:55:14;3.30;;;1.20;;
49460;SDS011;35355;49.198;-0.368;2022-10-16T14:57:40;3.15;;;0.88;;
49460;SDS011;35355;49.198;-0.368;2022-10-16T15:00:13;7.53;;;1.67;;
49460;SDS011;35355;49.198;-0.368;2022-10-16T15:02:42;4.18;;;1.33;;
49460;SDS011;35355;49.198;-0.368;2022-10-16T15:07:38;2.55;;;0.60;;
49460;SDS011;35355;49.198;-0.368;2022-10-16T15:10:03;5.97;;;0.90;;
49460;SDS011;35355;49.198;-0.368;2022-10-16T15:12:29;1.98;;;0.50;;
49460;SDS011;35355;49.198;-0.368;2022-10-16T15:14:55;1.73;;;0.80;;
49460;SDS011;35355;49.198;-0.368;2022-10-16T15:17:20;1.73;;;0.90;;
49460;SDS011;35355;49.198;-0.368;2022-10-16T15:19:45;1.13;;;0.73;;
49460;SDS011;35355;49.198;-0.368;2022-10-16T15:22:11;6.72;;;0.73;;
49460;SDS011;35355;49.198;-0.368;2022-10-16T15:24:37;4.95;;;1.00;;
49460;SDS011;35355;49.198;-0.368;2022-10-16T15:27:02;2.58;;;0.65;;
49460;SDS011;35355;49.198;-0.368;2022-10-16T15:29:28;4.10;;;1.10;;
49460;SDS011;35355;49.198;-0.368;2022-10-16T15:31:53;6.97;;;1.05;;
49460;SDS011;35355;49.198;-0.368;2022-10-16T15:34:23;4.63;;;0.90;;
49460;SDS011;35355;49.198;-0.368;2022-10-16T15:36:48;3.65;;;0.93;;
49460;SDS011;35355;49.198;-0.368;2022-10-16T15:39:15;7.18;;;0.82;;
49460;SDS011;35355;49.198;-0.368;2022-10-16T15:41:42;2.53;;;1.30;;
49460;SDS011;35355;49.198;-0.368;2022-10-16T15:44:15;3.70;;;1.40;;
49460;SDS011;35355;49.198;-0.368;2022-10-16T15:46:41;4.18;;;1.20;;
49460;SDS011;35355;49.198;-0.368;2022-10-16T15:49:06;10.18;;;1.38;;
49460;SDS011;35355;49.198;-0.368;2022-10-16T15:51:33;5.28;;;1.23;;
49460;SDS011;35355;49.198;-0.368;2022-10-16T15:54:02;2.45;;;1.20;;
49460;SDS011;35355;49.198;-0.368;2022-10-16T15:56:27;2.78;;;1.63;;
49460;SDS011;35355;49.198;-0.368;2022-10-16T15:58:53;4.90;;;1.20;;
49460;SDS011;35355;49.198;-0.368;2022-10-16T16:01:23;3.78;;;1.25;;
49460;SDS011;35355;49.198;-0.368;2022-10-16T16:03:52;6.60;;;2.10;;
49460;SDS011;35355;49.198;-0.368;2022-10-16T16:06:21;5.85;;;2.70;;
49460;SDS011;35355;49.198;-0.368;2022-10-16T16:08:48;3.63;;;2.70;;
49460;SDS011;35355;49.198;-0.368;2022-10-16T16:11:15;4.20;;;1.90;;
49460;SDS011;35355;49.198;-0.368;2022-10-16T16:13:41;4.15;;;1.30;;
49460;SDS011;35355;49.198;-0.368;2022-10-16T16:16:07;6.70;;;1.75;;
49460;SDS011;35355;49.198;-0.368;2022-10-16T16:18:35;6.20;;;2.03;;
49460;SDS011;35355;49.198;-0.368;2022-10-16T16:21:01;3.75;;;1.77;;
49460;SDS011;35355;49.198;-0.368;2022-10-16T16:23:26;3.80;;;1.88;;
49460;SDS011;35355;49.198;-0.368;2022-10-16T16:28:41;4.70;;;1.90;;
49460;SDS011;35355;49.198;-0.368;2022-10-16T16:31:08;5.63;;;1.80;;
49460;SDS011;35355;49.198;-0.368;2022-10-16T16:33:34;7.82;;;2.65;;
49460;SDS011;35355;49.198;-0.368;2022-10-16T16:36:00;10.68;;;2.33;;
49460;SDS011;35355;49.198;-0.368;2022-10-16T16:38:28;5.57;;;1.92;;
49460;SDS011;35355;49.198;-0.368;2022-10-16T16:40:56;7.13;;;2.75;;
49460;SDS011;35355;49.198;-0.368;2022-10-16T16:43:25;6.78;;;2.85;;
49460;SDS011;35355;49.198;-0.368;2022-10-16T16:45:51;4.85;;;2.20;;
49460;SDS011;35355;49.198;-0.368;2022-10-16T16:48:18;4.18;;;2.38;;
49460;SDS011;35355;49.198;-0.368;2022-10-16T16:50:43;6.97;;;2.30;;
49460;SDS011;35355;49.198;-0.368;2022-10-16T16:53:09;5.95;;;2.80;;
49460;SDS011;35355;49.198;-0.368;2022-10-16T16:55:34;6.60;;;2.58;;
49460;SDS011;35355;49.198;-0.368;2022-10-16T16:57:59;5.07;;;2.67;;
49460;SDS011;35355;49.198;-0.368;2022-10-16T17:00:25;9.43;;;3.85;;
49460;SDS011;35355;49.198;-0.368;2022-10-16T17:02:50;8.25;;;3.33;;
49460;SDS011;35355;49.198;-0.368;2022-10-16T17:05:17;6.97;;;3.42;;
49460;SDS011;35355;49.198;-0.368;2022-10-16T17:07:42;5.90;;;2.55;;
49460;SDS011;35355;49.198;-0.368;2022-10-16T17:10:08;8.48;;;3.15;;
49460;SDS011;35355;49.198;-0.368;2022-10-16T17:12:34;8.95;;;2.85;;
49460;SDS011;35355;49.198;-0.368;2022-10-16T17:14:59;6.25;;;2.53;;